sensor_id;sensor_type;location;lat;lon;timestamp;pressure;altitude;pressure_sealevel;temperature;humidity
74975;BME280;64061;50.836;19.138;2022-10-19T00:00:05;99228.31;;;23.32;57.58
74975;BME280;64061;50.836;19.138;2022-10-19T00:03:29;99232.47;;;23.29;57.63
74975;BME280;64061;50.836;19.138;2022-10-19T00:06:34;99228.59;;;23.30;57.58
74975;BME280;64061;50.836;19.138;2022-10-19T00:09:38;99225.06;;;23.30;57.58
74975;BME280;64061;50.836;19.138;2022-10-19T00:12:42;99226.16;;;23.29;57.35
74975;BME280;64061;50.836;19.138;2022-10-19T00:15:46;99231.34;;;23.30;57.42
74975;BME280;64061;50.836;19.138;2022-10-19T00:18:50;99230.84;;;23.28;57.04
74975;BME280;64061;50.836;19.138;2022-10-19T00:21:54;99235.25;;;23.29;57.46
74975;BME280;64061;50.836;19.138;2022-10-19T00:24:58;99238.28;;;23.28;57.40
74975;BME280;64061;50.836;19.138;2022-10-19T00:28:01;99237.47;;;23.27;57.57
74975;BME280;64061;50.836;19.138;2022-10-19T00:31:08;99238.00;;;23.29;57.60
74975;BME280;64061;50.836;19.138;2022-10-19T00:34:13;99227.84;;;23.25;57.66
74975;BME280;64061;50.836;19.138;2022-10-19T00:37:16;99231.13;;;23.27;57.53
74975;BME280;64061;50.836;19.138;2022-10-19T00:40:19;99233.88;;;23.27;57.70
74975;BME280;64061;50.836;19.138;2022-10-19T00:43:25;99231.94;;;23.27;57.51
74975;BME280;64061;50.836;19.138;2022-10-19T00:46:32;99230.84;;;23.28;57.54
74975;BME280;64061;50.836;19.138;2022-10-19T00:49:41;99227.28;;;23.28;57.15
74975;BME280;64061;50.836;19.138;2022-10-19T00:52:47;99224.81;;;23.26;57.52
74975;BME280;64061;50.836;19.138;2022-10-19T00:55:51;99224.81;;;23.26;57.46
74975;BME280;64061;50.836;19.138;2022-10-19T00:58:55;99231.94;;;23.27;57.83
74975;BME280;64061;50.836;19.138;2022-10-19T01:02:02;99227.28;;;23.28;57.71
74975;BME280;64061;50.836;19.138;2022-10-19T01:05:08;99227.56;;;23.26;57.75
74975;BME280;64061;50.836;19.138;2022-10-19T01:08:13;99226.44;;;23.27;57.69
74975;BME280;64061;50.836;19.138;2022-10-19T01:11:27;99228.59;;;23.30;57.89
74975;BME280;64061;50.836;19.138;2022-10-19T01:14:53;99226.97;;;23.29;56.91
74975;BME280;64061;50.836;19.138;2022-10-19T01:18:14;99223.69;;;23.27;57.66
74975;BME280;64061;50.836;19.138;2022-10-19T01:21:24;99232.25;;;23.26;57.73
74975;BME280;64061;50.836;19.138;2022-10-19T01:25:03;99227.47;;;23.31;57.40
74975;BME280;64061;50.836;19.138;2022-10-19T01:28:34;99231.94;;;23.27;57.93
74975;BME280;64061;50.836;19.138;2022-10-19T01:31:53;99241.31;;;23.26;57.70
74975;BME280;64061;50.836;19.138;2022-10-19T01:35:07;99244.91;;;23.27;57.89
74975;BME280;64061;50.836;19.138;2022-10-19T01:38:21;99235.81;;;23.26;57.65
74975;BME280;64061;50.836;19.138;2022-10-19T01:41:37;99231.41;;;23.25;58.03
74975;BME280;64061;50.836;19.138;2022-10-19T01:44:50;99218.78;;;23.24;57.66
74975;BME280;64061;50.836;19.138;2022-10-19T01:48:02;99216.56;;;23.26;57.66
74975;BME280;64061;50.836;19.138;2022-10-19T01:51:13;99214.38;;;23.23;57.76
74975;BME280;64061;50.836;19.138;2022-10-19T01:54:22;99217.41;;;23.22;57.61
74975;BME280;64061;50.836;19.138;2022-10-19T01:57:31;99209.69;;;23.24;57.53
74975;BME280;64061;50.836;19.138;2022-10-19T02:00:41;99222.63;;;23.23;57.69
74975;BME280;64061;50.836;19.138;2022-10-19T02:03:50;99217.66;;;23.25;57.62
74975;BME280;64061;50.836;19.138;2022-10-19T02:06:55;99195.41;;;23.22;57.66
74975;BME280;64061;50.836;19.138;2022-10-19T02:10:00;99205.59;;;23.21;57.46
74975;BME280;64061;50.836;19.138;2022-10-19T02:13:05;99204.47;;;23.22;57.61
74975;BME280;64061;50.836;19.138;2022-10-19T02:16:13;99205.59;;;23.21;57.71
74975;BME280;64061;50.836;19.138;2022-10-19T02:19:22;99209.44;;;23.20;57.97
74975;BME280;64061;50.836;19.138;2022-10-19T02:22:25;99210.84;;;23.18;57.93
74975;BME280;64061;50.836;19.138;2022-10-19T02:25:30;99208.09;;;23.18;57.78
74975;BME280;64061;50.836;19.138;2022-10-19T02:28:34;99212.00;;;23.17;57.91
74975;BME280;64061;50.836;19.138;2022-10-19T02:31:38;99209.53;;;23.15;57.89
74975;BME280;64061;50.836;19.138;2022-10-19T02:34:43;99206.78;;;23.15;57.77
74975;BME280;64061;50.836;19.138;2022-10-19T02:37:46;99205.94;;;23.15;57.68
74975;BME280;64061;50.836;19.138;2022-10-19T02:40:55;99212.28;;;23.15;57.72
74975;BME280;64061;50.836;19.138;2022-10-19T02:44:09;99212.84;;;23.12;57.47
74975;BME280;64061;50.836;19.138;2022-10-19T02:47:25;99213.69;;;23.13;57.86
74975;BME280;64061;50.836;19.138;2022-10-19T02:50:35;99215.06;;;23.10;57.67
74975;BME280;64061;50.836;19.138;2022-10-19T02:53:38;99221.69;;;23.09;57.76
74975;BME280;64061;50.836;19.138;2022-10-19T02:56:41;99206.28;;;23.08;57.80
74975;BME280;64061;50.836;19.138;2022-10-19T02:59:45;99202.41;;;23.09;57.54
74975;BME280;64061;50.836;19.138;2022-10-19T03:02:49;99205.47;;;23.07;57.59
74975;BME280;64061;50.836;19.138;2022-10-19T03:05:54;99209.84;;;23.08;57.54
74975;BME280;64061;50.836;19.138;2022-10-19T03:08:57;99202.19;;;23.05;57.62
74975;BME280;64061;50.836;19.138;2022-10-19T03:12:01;99204.94;;;23.05;57.55
74975;BME280;64061;50.836;19.138;2022-10-19T03:15:05;99196.66;;;23.05;57.69
74975;BME280;64061;50.836;19.138;2022-10-19T03:18:10;99198.59;;;23.05;57.85
74975;BME280;64061;50.836;19.138;2022-10-19T03:21:15;99203.00;;;23.06;57.60
74975;BME280;64061;50.836;19.138;2022-10-19T03:24:20;99198.09;;;23.03;57.86
74975;BME280;64061;50.836;19.138;2022-10-19T03:27:24;99200.84;;;23.03;57.89
74975;BME280;64061;50.836;19.138;2022-10-19T03:30:28;99201.97;;;23.02;57.71
74975;BME280;64061;50.836;19.138;2022-10-19T03:33:31;99200.84;;;23.03;58.04
74975;BME280;64061;50.836;19.138;2022-10-19T03:36:37;99194.22;;;23.04;57.89
74975;BME280;64061;50.836;19.138;2022-10-19T03:39:42;99201.97;;;23.02;58.36
74975;BME280;64061;50.836;19.138;2022-10-19T03:42:45;99198.38;;;23.01;57.81
74975;BME280;64061;50.836;19.138;2022-10-19T03:45:48;99195.63;;;23.01;58.17
74975;BME280;64061;50.836;19.138;2022-10-19T03:48:52;99183.81;;;23.01;57.98
74975;BME280;64061;50.836;19.138;2022-10-19T03:51:57;99179.94;;;23.02;58.17
74975;BME280;64061;50.836;19.138;2022-10-19T03:55:00;99184.91;;;23.00;58.22
74975;BME280;64061;50.836;19.138;2022-10-19T03:58:03;99182.16;;;23.00;57.96
74975;BME280;64061;50.836;19.138;2022-10-19T04:01:08;99176.66;;;23.00;58.08
74975;BME280;64061;50.836;19.138;2022-10-19T04:04:15;99179.41;;;23.00;58.15
74975;BME280;64061;50.836;19.138;2022-10-19T04:07:21;99177.78;;;22.99;57.86
74975;BME280;64061;50.836;19.138;2022-10-19T04:10:25;99189.91;;;22.98;58.15
74975;BME280;64061;50.836;19.138;2022-10-19T04:13:29;99174.50;;;22.97;58.12
74975;BME280;64061;50.836;19.138;2022-10-19T04:16:32;99181.09;;;22.96;58.25
74975;BME280;64061;50.836;19.138;2022-10-19T04:19:36;99178.34;;;22.96;58.37
74975;BME280;64061;50.836;19.138;2022-10-19T04:22:41;99164.59;;;22.96;58.21
74975;BME280;64061;50.836;19.138;2022-10-19T04:25:44;99166.81;;;22.94;57.86
74975;BME280;64061;50.836;19.138;2022-10-19T04:28:47;99164.06;;;22.94;58.28
74975;BME280;64061;50.836;19.138;2022-10-19T04:31:52;99161.59;;;22.92;58.21
74975;BME280;64061;50.836;19.138;2022-10-19T04:34:55;99158.03;;;22.92;58.29
74975;BME280;64061;50.836;19.138;2022-10-19T04:38:00;99157.22;;;22.91;57.93
74975;BME280;64061;50.836;19.138;2022-10-19T04:41:05;99150.88;;;22.91;58.02
74975;BME280;64061;50.836;19.138;2022-10-19T04:44:10;99150.38;;;22.89;58.07
74975;BME280;64061;50.836;19.138;2022-10-19T04:47:14;99137.44;;;22.89;58.00
74975;BME280;64061;50.836;19.138;2022-10-19T04:50:17;99157.81;;;22.88;57.86
74975;BME280;64061;50.836;19.138;2022-10-19T04:53:22;99160.28;;;22.90;57.98
74975;BME280;64061;50.836;19.138;2022-10-19T04:56:30;99147.09;;;22.87;57.91
74975;BME280;64061;50.836;19.138;2022-10-19T04:59:34;99146.56;;;22.85;58.09
74975;BME280;64061;50.836;19.138;2022-10-19T05:02:41;99143.25;;;22.88;57.98
74975;BME280;64061;50.836;19.138;2022-10-19T05:05:45;99146.56;;;22.85;58.09
74975;BME280;64061;50.836;19.138;2022-10-19T05:08:50;99144.94;;;22.84;58.17
74975;BME280;64061;50.836;19.138;2022-10-19T05:11:54;99140.28;;;22.79;58.28
74975;BME280;64061;50.836;19.138;2022-10-19T05:14:57;99138.97;;;22.77;57.90
74975;BME280;64061;50.836;19.138;2022-10-19T05:18:00;99125.22;;;22.77;58.41
74975;BME280;64061;50.836;19.138;2022-10-19T05:21:05;99124.91;;;22.78;58.83
74975;BME280;64061;50.836;19.138;2022-10-19T05:24:11;99139.19;;;22.80;58.12
74975;BME280;64061;50.836;19.138;2022-10-19T05:27:15;99124.31;;;22.81;58.06
74975;BME280;64061;50.836;19.138;2022-10-19T05:30:18;99137.78;;;22.83;57.96
74975;BME280;64061;50.836;19.138;2022-10-19T05:33:23;99136.91;;;22.87;57.93
74975;BME280;64061;50.836;19.138;2022-10-19T05:36:28;99138.28;;;22.90;57.69
74975;BME280;64061;50.836;19.138;2022-10-19T05:39:37;99148.66;;;22.93;57.82
74975;BME280;64061;50.836;19.138;2022-10-19T05:42:40;99139.31;;;22.94;57.67
74975;BME280;64061;50.836;19.138;2022-10-19T05:45:43;99141.19;;;22.98;58.21
74975;BME280;64061;50.836;19.138;2022-10-19T05:48:47;99150.19;;;23.04;58.14
74975;BME280;64061;50.836;19.138;2022-10-19T05:51:50;99155.88;;;23.13;58.96
74975;BME280;64061;50.836;19.138;2022-10-19T05:54:55;99147.25;;;23.19;59.48
74975;BME280;64061;50.836;19.138;2022-10-19T05:57:59;99150.78;;;23.25;59.69
74975;BME280;64061;50.836;19.138;2022-10-19T06:01:02;99147.97;;;23.30;59.70
74975;BME280;64061;50.836;19.138;2022-10-19T06:04:06;99165.50;;;23.34;59.73
74975;BME280;64061;50.836;19.138;2022-10-19T06:07:09;99169.03;;;23.39;59.80
74975;BME280;64061;50.836;19.138;2022-10-19T06:10:13;99168.94;;;23.44;59.71
74975;BME280;64061;50.836;19.138;2022-10-19T06:13:18;99163.16;;;23.46;59.42
74975;BME280;64061;50.836;19.138;2022-10-19T06:16:22;99169.47;;;23.46;59.29
74975;BME280;64061;50.836;19.138;2022-10-19T06:19:28;99169.47;;;23.46;59.78
74975;BME280;64061;50.836;19.138;2022-10-19T06:22:31;99161.75;;;23.49;59.82
74975;BME280;64061;50.836;19.138;2022-10-19T06:25:35;99170.81;;;23.49;59.27
74975;BME280;64061;50.836;19.138;2022-10-19T06:28:40;99155.72;;;23.46;59.14
74975;BME280;64061;50.836;19.138;2022-10-19T06:31:47;99158.25;;;23.43;58.70
74975;BME280;64061;50.836;19.138;2022-10-19T06:34:50;99166.28;;;23.39;58.62
74975;BME280;64061;50.836;19.138;2022-10-19T06:37:57;99163.28;;;23.36;58.46
74975;BME280;64061;50.836;19.138;2022-10-19T06:41:02;99167.97;;;23.35;58.24
74975;BME280;64061;50.836;19.138;2022-10-19T06:44:07;99175.19;;;23.31;58.55
74975;BME280;64061;50.836;19.138;2022-10-19T06:47:11;99182.63;;;23.31;58.31
74975;BME280;64061;50.836;19.138;2022-10-19T06:50:15;99168.34;;;23.29;58.07
74975;BME280;64061;50.836;19.138;2022-10-19T06:53:18;99189.56;;;23.28;58.06
74975;BME280;64061;50.836;19.138;2022-10-19T06:56:23;99184.88;;;23.29;57.98
74975;BME280;64061;50.836;19.138;2022-10-19T06:59:27;99189.84;;;23.27;58.04
74975;BME280;64061;50.836;19.138;2022-10-19T07:02:31;99196.16;;;23.27;57.85
74975;BME280;64061;50.836;19.138;2022-10-19T07:05:35;99190.13;;;23.25;57.66
74975;BME280;64061;50.836;19.138;2022-10-19T07:08:39;99187.09;;;23.27;57.72
74975;BME280;64061;50.836;19.138;2022-10-19T07:11:45;99179.66;;;23.27;57.54
74975;BME280;64061;50.836;19.138;2022-10-19T07:14:48;99184.63;;;23.25;57.69
74975;BME280;64061;50.836;19.138;2022-10-19T07:17:52;99195.63;;;23.25;57.35
74975;BME280;64061;50.836;19.138;2022-10-19T07:20:56;99206.66;;;23.25;57.28
74975;BME280;64061;50.836;19.138;2022-10-19T07:24:00;99202.25;;;23.24;57.23
74975;BME280;64061;50.836;19.138;2022-10-19T07:27:05;99199.75;;;23.28;57.21
74975;BME280;64061;50.836;19.138;2022-10-19T07:30:09;99201.38;;;23.29;56.71
74975;BME280;64061;50.836;19.138;2022-10-19T07:33:12;99203.81;;;23.30;56.61
74975;BME280;64061;50.836;19.138;2022-10-19T07:36:16;99199.13;;;23.31;56.55
74975;BME280;64061;50.836;19.138;2022-10-19T07:39:19;99205.47;;;23.31;56.36
74975;BME280;64061;50.836;19.138;2022-10-19T07:42:24;99204.88;;;23.34;56.20
74975;BME280;64061;50.836;19.138;2022-10-19T07:45:27;99196.63;;;23.34;56.32
74975;BME280;64061;50.836;19.138;2022-10-19T07:48:31;99203.75;;;23.35;55.95
74975;BME280;64061;50.836;19.138;2022-10-19T07:51:35;99204.59;;;23.36;56.02
74975;BME280;64061;50.836;19.138;2022-10-19T07:54:40;99202.66;;;23.36;55.90
74975;BME280;64061;50.836;19.138;2022-10-19T07:57:46;99207.88;;;23.38;55.85
74975;BME280;64061;50.836;19.138;2022-10-19T08:00:58;99212.28;;;23.39;55.85
74975;BME280;64061;50.836;19.138;2022-10-19T08:04:02;99206.00;;;23.33;55.77
74975;BME280;64061;50.836;19.138;2022-10-19T08:07:26;99198.56;;;23.34;55.64
74975;BME280;64061;50.836;19.138;2022-10-19T08:10:29;99204.88;;;23.34;56.05
74975;BME280;64061;50.836;19.138;2022-10-19T08:13:35;99196.56;;;23.39;55.27
74975;BME280;64061;50.836;19.138;2022-10-19T08:16:40;99208.13;;;23.41;54.95
74975;BME280;64061;50.836;19.138;2022-10-19T08:19:45;99205.56;;;23.45;54.91
74975;BME280;64061;50.836;19.138;2022-10-19T08:22:48;99203.34;;;23.47;54.74
74975;BME280;64061;50.836;19.138;2022-10-19T08:25:58;99204.16;;;23.48;54.76
74975;BME280;64061;50.836;19.138;2022-10-19T08:29:05;99204.16;;;23.53;54.51
74975;BME280;64061;50.836;19.138;2022-10-19T08:32:10;99206.91;;;23.53;54.54
74975;BME280;64061;50.836;19.138;2022-10-19T08:35:13;99213.22;;;23.53;54.58
74975;BME280;64061;50.836;19.138;2022-10-19T08:38:16;99214.03;;;23.54;54.50
74975;BME280;64061;50.836;19.138;2022-10-19T08:41:24;99208.25;;;23.55;54.16
74975;BME280;64061;50.836;19.138;2022-10-19T08:45:04;99196.84;;;23.62;54.11
74975;BME280;64061;50.836;19.138;2022-10-19T08:48:23;99212.13;;;23.54;54.20
74975;BME280;64061;50.836;19.138;2022-10-19T08:51:36;99207.94;;;23.57;53.99
74975;BME280;64061;50.836;19.138;2022-10-19T08:54:48;99208.16;;;23.60;53.68
74975;BME280;64061;50.836;19.138;2022-10-19T08:58:00;99205.69;;;23.59;53.91
74975;BME280;64061;50.836;19.138;2022-10-19T09:01:27;99205.13;;;23.62;53.76
74975;BME280;64061;50.836;19.138;2022-10-19T09:04:40;99210.09;;;23.60;53.81
74975;BME280;64061;50.836;19.138;2022-10-19T09:07:52;99211.44;;;23.62;53.67
74975;BME280;64061;50.836;19.138;2022-10-19T09:10:56;99207.56;;;23.63;54.14
74975;BME280;64061;50.836;19.138;2022-10-19T09:14:04;99214.34;;;23.71;54.64
74975;BME280;64061;50.836;19.138;2022-10-19T09:17:17;99214.59;;;23.74;54.12
74975;BME280;64061;50.836;19.138;2022-10-19T09:20:22;99212.34;;;23.76;54.23
74975;BME280;64061;50.836;19.138;2022-10-19T09:23:36;99214.75;;;23.83;54.38
74975;BME280;64061;50.836;19.138;2022-10-19T09:26:50;99219.38;;;23.88;53.91
74975;BME280;64061;50.836;19.138;2022-10-19T09:29:55;99219.59;;;23.91;53.94
74975;BME280;64061;50.836;19.138;2022-10-19T09:33:01;99225.03;;;23.96;53.53
74975;BME280;64061;50.836;19.138;2022-10-19T09:36:06;99218.91;;;23.99;53.73
74975;BME280;64061;50.836;19.138;2022-10-19T09:39:25;99217.81;;;24.00;53.41
74975;BME280;64061;50.836;19.138;2022-10-19T09:42:32;99228.81;;;24.00;53.16
74975;BME280;64061;50.836;19.138;2022-10-19T09:45:43;99226.88;;;24.01;53.56
74975;BME280;64061;50.836;19.138;2022-10-19T09:48:53;99226.66;;;23.97;53.68
74975;BME280;64061;50.836;19.138;2022-10-19T09:51:56;99228.81;;;24.00;53.63
74975;BME280;64061;50.836;19.138;2022-10-19T09:55:02;99238.97;;;24.05;53.47
74975;BME280;64061;50.836;19.138;2022-10-19T09:58:15;99232.03;;;24.07;53.27
74975;BME280;64061;50.836;19.138;2022-10-19T10:01:31;99244.41;;;24.10;52.88
74975;BME280;64061;50.836;19.138;2022-10-19T10:04:54;99235.00;;;24.11;52.93
74975;BME280;64061;50.836;19.138;2022-10-19T10:08:10;99238.09;;;24.09;53.27
74975;BME280;64061;50.836;19.138;2022-10-19T10:11:22;99243.50;;;24.14;52.65
74975;BME280;64061;50.836;19.138;2022-10-19T10:14:29;99237.47;;;24.12;52.86
74975;BME280;64061;50.836;19.138;2022-10-19T10:17:35;99239.09;;;24.13;52.57
74975;BME280;64061;50.836;19.138;2022-10-19T10:20:55;99242.88;;;24.23;52.67
74975;BME280;64061;50.836;19.138;2022-10-19T10:24:03;99248.97;;;24.20;52.61
74975;BME280;64061;50.836;19.138;2022-10-19T10:27:24;99243.91;;;24.27;52.58
74975;BME280;64061;50.836;19.138;2022-10-19T10:30:34;99254.47;;;24.20;52.51
74975;BME280;64061;50.836;19.138;2022-10-19T10:33:39;99245.16;;;24.15;52.59
74975;BME280;64061;50.836;19.138;2022-10-19T10:36:50;99247.91;;;24.15;52.66
74975;BME280;64061;50.836;19.138;2022-10-19T10:39:56;99242.91;;;24.17;52.58
74975;BME280;64061;50.836;19.138;2022-10-19T10:43:08;99239.34;;;24.17;53.34
74975;BME280;64061;50.836;19.138;2022-10-19T10:46:20;99240.38;;;24.21;55.02
74975;BME280;64061;50.836;19.138;2022-10-19T10:49:29;99243.44;;;24.20;56.84
74975;BME280;64061;50.836;19.138;2022-10-19T10:52:38;99237.41;;;24.17;58.40
74975;BME280;64061;50.836;19.138;2022-10-19T10:55:54;99248.97;;;24.20;58.66
74975;BME280;64061;50.836;19.138;2022-10-19T10:59:00;99250.13;;;24.13;59.29
74975;BME280;64061;50.836;19.138;2022-10-19T11:02:15;99250.94;;;24.14;60.21
74975;BME280;64061;50.836;19.138;2022-10-19T11:05:30;99242.97;;;24.12;60.17
74975;BME280;64061;50.836;19.138;2022-10-19T11:08:45;99247.31;;;24.19;59.41
74975;BME280;64061;50.836;19.138;2022-10-19T11:11:52;99246.78;;;24.16;58.71
74975;BME280;64061;50.836;19.138;2022-10-19T11:15:02;99242.63;;;24.19;58.58
74975;BME280;64061;50.836;19.138;2022-10-19T11:18:18;99226.91;;;24.20;58.73
74975;BME280;64061;50.836;19.138;2022-10-19T11:21:30;99223.31;;;24.19;58.70
74975;BME280;64061;50.836;19.138;2022-10-19T11:24:51;99221.09;;;24.21;58.15
74975;BME280;64061;50.836;19.138;2022-10-19T11:28:15;99230.78;;;24.19;58.00
74975;BME280;64061;50.836;19.138;2022-10-19T11:31:36;99227.19;;;24.18;57.83
74975;BME280;64061;50.836;19.138;2022-10-19T11:34:55;99224.13;;;24.20;57.72
74975;BME280;64061;50.836;19.138;2022-10-19T11:38:21;99219.69;;;24.24;57.74
74975;BME280;64061;50.836;19.138;2022-10-19T11:41:43;99218.56;;;24.25;57.98
74975;BME280;64061;50.836;19.138;2022-10-19T11:45:01;99217.16;;;24.27;58.68
74975;BME280;64061;50.836;19.138;2022-10-19T11:48:31;99224.00;;;24.30;59.76
74975;BME280;64061;50.836;19.138;2022-10-19T11:51:58;99217.44;;;24.26;58.32
74975;BME280;64061;50.836;19.138;2022-10-19T11:55:14;99225.94;;;24.29;57.49
74975;BME280;64061;50.836;19.138;2022-10-19T11:58:42;99217.91;;;24.33;56.66
74975;BME280;64061;50.836;19.138;2022-10-19T12:02:04;99228.41;;;24.31;56.26
74975;BME280;64061;50.836;19.138;2022-10-19T12:05:31;99221.84;;;24.27;55.74
74975;BME280;64061;50.836;19.138;2022-10-19T12:08:51;99214.69;;;24.26;55.56
74975;BME280;64061;50.836;19.138;2022-10-19T12:12:27;99221.03;;;24.26;54.85
74975;BME280;64061;50.836;19.138;2022-10-19T12:15:41;99225.78;;;24.21;55.07
74975;BME280;64061;50.836;19.138;2022-10-19T12:18:49;99223.03;;;24.21;55.86
74975;BME280;64061;50.836;19.138;2022-10-19T12:21:59;99220.50;;;24.24;55.22
74975;BME280;64061;50.836;19.138;2022-10-19T12:25:05;99218.56;;;24.25;55.34
74975;BME280;64061;50.836;19.138;2022-10-19T12:28:17;99212.16;;;24.29;54.76
74975;BME280;64061;50.836;19.138;2022-10-19T12:31:28;99210.53;;;24.28;55.04
74975;BME280;64061;50.836;19.138;2022-10-19T12:34:39;99203.06;;;24.29;54.93
74975;BME280;64061;50.836;19.138;2022-10-19T12:37:56;99195.91;;;24.28;54.87
74975;BME280;64061;50.836;19.138;2022-10-19T12:41:09;99208.59;;;24.29;54.41
74975;BME280;64061;50.836;19.138;2022-10-19T12:48:18;99198.16;;;24.26;54.07
74975;BME280;64061;50.836;19.138;2022-10-19T12:51:26;99195.47;;;24.21;54.43
74975;BME280;64061;50.836;19.138;2022-10-19T12:54:31;99217.81;;;24.19;54.25
74975;BME280;64061;50.836;19.138;2022-10-19T12:57:38;99223.38;;;24.14;54.39
74975;BME280;64061;50.836;19.138;2022-10-19T13:00:56;99221.44;;;24.14;54.70
74975;BME280;64061;50.836;19.138;2022-10-19T13:04:08;99229.28;;;24.07;54.86
74975;BME280;64061;50.836;19.138;2022-10-19T13:07:16;99227.19;;;23.99;54.56
74975;BME280;64061;50.836;19.138;2022-10-19T13:10:22;99241.06;;;23.94;54.32
74975;BME280;64061;50.836;19.138;2022-10-19T13:13:56;99226.75;;;23.92;52.66
74975;BME280;64061;50.836;19.138;2022-10-19T13:17:02;99228.59;;;23.78;52.61
74975;BME280;64061;50.836;19.138;2022-10-19T13:20:45;99226.91;;;23.82;51.95
74975;BME280;64061;50.836;19.138;2022-10-19T13:24:18;99234.41;;;23.76;51.93
74975;BME280;64061;50.836;19.138;2022-10-19T13:27:35;99238.63;;;23.69;51.51
74975;BME280;64061;50.836;19.138;2022-10-19T13:30:58;99231.50;;;23.68;51.54
74975;BME280;64061;50.836;19.138;2022-10-19T13:34:09;99232.50;;;23.53;51.35
74975;BME280;64061;50.836;19.138;2022-10-19T13:37:18;99231.16;;;23.51;51.36
74975;BME280;64061;50.836;19.138;2022-10-19T13:40:22;99233.34;;;23.49;50.83
74975;BME280;64061;50.836;19.138;2022-10-19T13:43:28;99236.69;;;23.45;50.45
74975;BME280;64061;50.836;19.138;2022-10-19T13:46:45;99239.44;;;23.45;50.06
74975;BME280;64061;50.836;19.138;2022-10-19T13:50:10;99243.63;;;23.43;49.84
74975;BME280;64061;50.836;19.138;2022-10-19T13:53:29;99236.75;;;23.40;49.46
74975;BME280;64061;50.836;19.138;2022-10-19T13:57:04;99242.25;;;23.40;49.11
74975;BME280;64061;50.836;19.138;2022-10-19T14:00:18;99244.81;;;23.32;48.80
74975;BME280;64061;50.836;19.138;2022-10-19T14:03:33;99243.41;;;23.34;48.91
74975;BME280;64061;50.836;19.138;2022-10-19T14:06:52;99240.75;;;23.29;48.68
74975;BME280;64061;50.836;19.138;2022-10-19T14:10:06;99237.66;;;23.31;48.80
74975;BME280;64061;50.836;19.138;2022-10-19T14:13:17;99238.31;;;23.23;48.79
74975;BME280;64061;50.836;19.138;2022-10-19T14:16:23;99239.44;;;23.22;48.69
74975;BME280;64061;50.836;19.138;2022-10-19T14:19:28;99227.06;;;23.19;48.27
74975;BME280;64061;50.836;19.138;2022-10-19T14:22:35;99240.91;;;23.14;48.09
74975;BME280;64061;50.836;19.138;2022-10-19T14:25:39;99238.44;;;23.13;48.07
74975;BME280;64061;50.836;19.138;2022-10-19T14:28:43;99227.19;;;23.09;47.97
74975;BME280;64061;50.836;19.138;2022-10-19T14:31:46;99225.00;;;23.06;47.72
74975;BME280;64061;50.836;19.138;2022-10-19T14:34:51;99215.13;;;23.05;47.22
74975;BME280;64061;50.836;19.138;2022-10-19T14:37:56;99217.94;;;23.00;47.47
74975;BME280;64061;50.836;19.138;2022-10-19T14:41:02;99226.47;;;22.98;47.25
74975;BME280;64061;50.836;19.138;2022-10-19T14:44:31;99230.88;;;22.99;47.22
74975;BME280;64061;50.836;19.138;2022-10-19T14:47:54;99227.34;;;22.94;47.25
74975;BME280;64061;50.836;19.138;2022-10-19T14:50:59;99233.78;;;22.84;47.22
74975;BME280;64061;50.836;19.138;2022-10-19T14:54:05;99232.13;;;22.83;47.00
74975;BME280;64061;50.836;19.138;2022-10-19T14:57:18;99236.00;;;22.82;46.86
74975;BME280;64061;50.836;19.138;2022-10-19T15:00:28;99236.84;;;22.78;47.02
74975;BME280;64061;50.836;19.138;2022-10-19T15:03:35;99228.34;;;22.74;47.13
74975;BME280;64061;50.836;19.138;2022-10-19T15:06:44;99227.28;;;22.70;46.93
74975;BME280;64061;50.836;19.138;2022-10-19T15:09:51;99233.88;;;22.69;46.73
74975;BME280;64061;50.836;19.138;2022-10-19T15:13:01;99235.00;;;22.68;46.94
74975;BME280;64061;50.836;19.138;2022-10-19T15:16:39;99240.19;;;22.69;46.35
74975;BME280;64061;50.836;19.138;2022-10-19T15:19:45;99235.91;;;22.58;46.55
74975;BME280;64061;50.836;19.138;2022-10-19T15:22:48;99248.00;;;22.57;46.50
74975;BME280;64061;50.836;19.138;2022-10-19T15:25:58;99239.75;;;22.57;46.54
74975;BME280;64061;50.836;19.138;2022-10-19T15:29:20;99249.38;;;22.60;47.76
74975;BME280;64061;50.836;19.138;2022-10-19T15:32:29;99265.63;;;22.56;48.07
74975;BME280;64061;50.836;19.138;2022-10-19T15:35:37;99273.59;;;22.53;47.77
74975;BME280;64061;50.836;19.138;2022-10-19T15:38:44;99280.22;;;22.52;47.44
74975;BME280;64061;50.836;19.138;2022-10-19T15:41:49;99290.97;;;22.48;47.21
74975;BME280;64061;50.836;19.138;2022-10-19T15:44:53;99286.88;;;22.46;47.12
74975;BME280;64061;50.836;19.138;2022-10-19T15:48:27;99285.47;;;22.48;46.96
74975;BME280;64061;50.836;19.138;2022-10-19T15:51:50;99289.69;;;22.35;47.16
74975;BME280;64061;50.836;19.138;2022-10-19T15:54:55;99281.44;;;22.35;46.75
74975;BME280;64061;50.836;19.138;2022-10-19T15:58:00;99281.19;;;22.32;46.83
74975;BME280;64061;50.836;19.138;2022-10-19T16:01:08;99282.84;;;22.33;46.70
74975;BME280;64061;50.836;19.138;2022-10-19T16:04:18;99279.56;;;22.26;46.51
74975;BME280;64061;50.836;19.138;2022-10-19T16:07:25;99295.25;;;22.25;46.81
74975;BME280;64061;50.836;19.138;2022-10-19T16:10:31;99299.69;;;22.21;46.96
74975;BME280;64061;50.836;19.138;2022-10-19T16:13:34;99305.47;;;22.20;46.96
74975;BME280;64061;50.836;19.138;2022-10-19T16:16:39;99295.00;;;22.22;47.02
74975;BME280;64061;50.836;19.138;2022-10-19T16:19:44;99307.09;;;22.21;47.10
74975;BME280;64061;50.836;19.138;2022-10-19T16:22:48;99309.25;;;22.24;47.26
74975;BME280;64061;50.836;19.138;2022-10-19T16:25:52;99309.81;;;22.26;47.23
74975;BME280;64061;50.836;19.138;2022-10-19T16:28:55;99308.69;;;22.27;47.72
74975;BME280;64061;50.836;19.138;2022-10-19T16:32:00;99315.56;;;22.29;48.02